Hundvaag 1 weather for Feb 1998
Month no. 128
Obs.
Da.
Temp. Dew Point Precip. Wind
Speed
Wind gusts Cloud cover Press. Humidity Wind dir. Sunny OPT
01.02.1998 3,4   11,0     0          
02.02.1998 0,4   3,0     0          
03.02.1998 -0,4   0,0     0          
04.02.1998 1,1   9,0     0          
05.02.1998 2,9   9,0     0          
06.02.1998 5,8   9,0     0          
07.02.1998 5,2   11,0     1       1  
08.02.1998 5,6   5,0     0          
09.02.1998 7,0   19,0     0          
10.02.1998 6,3   10,0     0          
11.02.1998 6,2   1,0     0          
12.02.1998 6,3   47,0     0       1  
13.02.1998 4,4   1,0     0          
14.02.1998 8,0   10,0     0          
15.02.1998 7,2   17,0     0          
16.02.1998 8,0   16,0     0       1  
17.02.1998 1,6   2,0     0          
18.02.1998 7,3   7,0     0          
19.02.1998 6,4   2,0     0          
20.02.1998 7,3   1,0     0          
21.02.1998 8,7   8,0     0       1  
22.02.1998 5,1   10,0     10       1  
23.02.1998 6,4   7,0     0          
24.02.1998 7,7   20,0     0          
25.02.1998 7,7   19,0     0       1  
26.02.1998 6,8   0,0     0       1  
27.02.1998 5,0   5,0     0       1  
28.02.1998 1,6   11,0     0       1  
                       
                       
                       
Avrg/Sum 5,3   270,0     0,4       9